Time;durP1;ratioP1;P1;durP2;ratioP2;P2;SDS_P1;SDS_P2;PMS_P1;PMS_P2;Temp;Humidity;BMP_temperature;BMP_pressure;BME280_temperature;BME280_humidity;BME280_pressure;Samples;Min_cycle;Max_cycle;Signal;HPM_P1;HPM_P2
2022/01/02 00:00:10;;;;;;;4.70;2.90;;;11.30;1.00;;;;;;5088707;28;20931;-60
2022/01/02 00:02:37;;;;;;;4.97;2.80;;;11.20;1.00;;;;;;5090208;28;20243;-60
2022/01/02 00:05:10;;;;;;;4.03;3.23;;;11.10;1.00;;;;;;5068081;28;20198;-60
2022/01/02 00:08:03;;;;;;;6.93;2.97;;;11.00;1.00;;;;;;5088041;28;20214;-60
2022/01/02 00:10:47;;;;;;;3.93;2.77;;;11.00;1.00;;;;;;5068861;28;20252;-60
2022/01/02 00:13:34;;;;;;;5.40;3.43;;;11.00;1.00;;;;;;5088724;28;20272;-60
2022/01/02 00:16:06;;;;;;;4.53;3.50;;;10.90;1.00;;;;;;5088229;28;20194;-61
2022/01/02 00:18:37;;;;;;;5.40;3.03;;;10.80;1.00;;;;;;5068652;28;20561;-60
2022/01/02 00:21:09;;;;;;;3.70;2.80;;;10.60;1.00;;;;;;5085343;28;20301;-60
2022/01/02 00:26:45;;;;;;;5.10;3.50;;;10.40;99.90;;;;;;4996362;28;20224;-60
2022/01/02 00:29:13;;;;;;;7.67;3.63;;;10.30;99.90;;;;;;5059200;28;20214;-60
2022/01/02 00:31:41;;;;;;;7.37;3.67;;;10.30;99.90;;;;;;5086495;28;20234;-60
2022/01/02 00:34:09;;;;;;;3.83;3.10;;;10.30;99.90;;;;;;5070067;28;20202;-60
2022/01/02 00:36:37;;;;;;;4.80;3.00;;;10.40;99.90;;;;;;5068405;28;20222;-61
2022/01/02 00:39:06;;;;;;;4.80;3.27;;;10.40;99.90;;;;;;5088940;28;20198;-61
2022/01/02 00:41:42;;;;;;;5.37;3.00;;;10.60;99.90;;;;;;5069128;28;20275;-60
2022/01/02 00:44:35;;;;;;;5.57;3.43;;;10.70;1.00;;;;;;5086409;28;20197;-60
2022/01/02 00:47:11;;;;;;;5.57;3.00;;;10.90;1.00;;;;;;5042761;28;20226;-60
2022/01/02 00:49:40;;;;;;;5.77;2.70;;;10.90;1.00;;;;;;5088063;28;20200;-60
2022/01/02 00:52:17;;;;;;;4.33;2.83;;;10.90;1.00;;;;;;5085399;28;20198;-60
2022/01/02 00:54:45;;;;;;;4.97;2.67;;;10.90;1.00;;;;;;5063196;28;20212;-60
2022/01/02 00:57:29;;;;;;;6.47;4.27;;;11.00;1.00;;;;;;5069891;28;20247;-60
2022/01/02 01:00:09;;;;;;;5.67;3.90;;;11.00;1.00;;;;;;5068912;28;20201;-61
2022/01/02 01:02:47;;;;;;;6.43;2.90;;;11.10;1.00;;;;;;5054372;28;20227;-60
2022/01/02 01:05:23;;;;;;;4.43;2.90;;;11.10;1.00;;;;;;5068836;28;20281;-61
2022/01/02 01:07:55;;;;;;;5.57;3.20;;;11.10;1.00;;;;;;5087357;28;20206;-60
2022/01/02 01:10:24;;;;;;;4.30;2.90;;;11.20;1.00;;;;;;5069435;28;20201;-60
2022/01/02 01:12:54;;;;;;;5.33;3.90;;;11.20;1.00;;;;;;5088397;28;20202;-61
2022/01/02 01:15:23;;;;;;;5.40;3.23;;;11.20;1.00;;;;;;5069400;28;20283;-60
2022/01/02 01:17:53;;;;;;;3.50;3.20;;;11.30;1.00;;;;;;5087436;28;20190;-60
2022/01/02 01:20:20;;;;;;;7.87;5.27;;;11.30;1.00;;;;;;5067945;28;20225;-60
2022/01/02 01:22:48;;;;;;;5.97;3.80;;;11.30;1.00;;;;;;5069324;28;20723;-60
2022/01/02 01:25:18;;;;;;;5.20;2.80;;;11.30;1.00;;;;;;5067197;28;20604;-60
2022/01/02 01:27:50;;;;;;;4.27;2.80;;;11.40;1.00;;;;;;5047126;28;20653;-60
2022/01/02 01:30:18;;;;;;;3.97;2.80;;;11.40;1.00;;;;;;5086791;28;20247;-60
2022/01/02 01:32:46;;;;;;;4.53;2.67;;;11.60;1.00;;;;;;5087574;28;20567;-60
2022/01/02 01:35:14;;;;;;;3.60;2.93;;;11.60;99.90;;;;;;5085114;28;20226;-60
2022/01/02 01:37:43;;;;;;;6.67;4.63;;;11.60;1.00;;;;;;5081410;28;20319;-60
2022/01/02 01:40:16;;;;;;;6.67;3.27;;;11.60;1.00;;;;;;5069191;28;20687;-60
2022/01/02 01:42:56;;;;;;;4.97;3.20;;;11.60;1.00;;;;;;5062052;28;20204;-60
2022/01/02 01:45:28;;;;;;;6.40;3.40;;;11.60;99.90;;;;;;5067129;28;20198;-60
2022/01/02 01:48:03;;;;;;;4.20;3.40;;;11.70;99.90;;;;;;5090826;28;20199;-60
2022/01/02 01:50:42;;;;;;;5.03;3.53;;;11.90;99.90;;;;;;5072642;28;20189;-60
2022/01/02 01:53:19;;;;;;;6.27;4.30;;;11.90;99.90;;;;;;5058287;28;20202;-60
2022/01/02 01:55:46;;;;;;;7.87;3.93;;;11.90;99.90;;;;;;5073803;28;20198;-60
2022/01/02 01:58:14;;;;;;;6.83;2.80;;;12.00;99.90;;;;;;5072743;28;20295;-60
2022/01/02 02:00:44;;;;;;;4.80;3.10;;;12.00;99.90;;;;;;5073704;28;20190;-59
2022/01/02 02:03:26;;;;;;;5.10;2.80;;;12.10;99.90;;;;;;5057571;28;20213;-60
2022/01/02 02:05:54;;;;;;;7.20;4.07;;;12.10;99.90;;;;;;5070605;28;20564;-60
2022/01/02 02:08:25;;;;;;;5.10;3.80;;;12.10;99.90;;;;;;5072404;28;20260;-60
2022/01/02 02:10:56;;;;;;;10.90;5.67;;;12.10;99.90;;;;;;5066124;28;20191;-60
2022/01/02 02:13:25;;;;;;;3.97;3.30;;;12.00;99.90;;;;;;5073396;28;20551;-60
2022/01/02 02:15:57;;;;;;;6.50;4.70;;;12.00;99.90;;;;;;5073451;28;20198;-60
2022/01/02 02:18:24;;;;;;;13.07;6.37;;;12.10;99.90;;;;;;5072798;28;20623;-61
2022/01/02 02:20:51;;;;;;;8.77;4.63;;;12.10;99.90;;;;;;5069873;28;20225;-60
2022/01/02 02:23:26;;;;;;;5.10;3.33;;;12.10;99.90;;;;;;5073957;28;20634;-60
2022/01/02 02:25:53;;;;;;;13.33;7.27;;;12.10;99.90;;;;;;5072776;28;20234;-60
2022/01/02 02:28:26;;;;;;;7.70;4.47;;;12.10;99.90;;;;;;5067554;28;20264;-60
2022/01/02 02:30:55;;;;;;;4.73;3.03;;;12.20;99.90;;;;;;5071604;28;20285;-60
2022/01/02 02:33:23;;;;;;;6.63;3.17;;;12.20;99.90;;;;;;5088943;28;20233;-61
2022/01/02 02:35:50;;;;;;;6.87;3.40;;;12.30;99.90;;;;;;5069738;28;20200;-60
2022/01/02 02:38:18;;;;;;;7.33;3.93;;;12.30;99.90;;;;;;5071632;28;20906;-60
2022/01/02 02:40:49;;;;;;;6.23;3.70;;;12.30;99.90;;;;;;5070772;28;20195;-60
2022/01/02 02:49:08;;;;;;;4.70;3.43;;;12.20;1.00;;;;;;5067193;28;20206;-61
2022/01/02 02:54:27;;;;;;;12.20;5.57;;;12.10;1.00;;;;;;5080836;28;20194;-60
2022/01/02 02:59:23;;;;;;;5.37;3.30;;;12.00;1.00;;;;;;5088102;28;20665;-60
2022/01/02 03:01:51;;;;;;;13.93;6.53;;;12.00;1.00;;;;;;5085363;28;20236;-61
2022/01/02 03:04:19;;;;;;;7.53;3.50;;;12.00;1.00;;;;;;5081748;28;20191;-61
2022/01/02 03:06:46;;;;;;;8.40;4.20;;;12.00;1.00;;;;;;5069777;28;20281;-61
2022/01/02 03:09:16;;;;;;;7.33;3.50;;;12.00;1.00;;;;;;5054688;28;20194;-60
2022/01/02 03:11:43;;;;;;;7.20;3.60;;;12.00;1.00;;;;;;5078235;28;20195;-60
2022/01/02 03:14:12;;;;;;;7.00;3.77;;;12.00;1.00;;;;;;5068894;28;20747;-59
2022/01/02 03:16:42;;;;;;;6.90;4.20;;;12.00;1.00;;;;;;5068731;28;20724;-60
2022/01/02 03:19:09;;;;;;;6.23;3.20;;;12.00;1.00;;;;;;5063025;28;20203;-60
2022/01/02 03:21:36;;;;;;;7.60;4.40;;;12.00;1.00;;;;;;5084760;28;20214;-60
2022/01/02 03:24:04;;;;;;;6.43;3.80;;;11.90;1.00;;;;;;5054176;28;20272;-60
2022/01/02 03:26:31;;;;;;;5.53;3.10;;;12.00;1.00;;;;;;5069559;28;20253;-60
2022/01/02 03:28:58;;;;;;;9.00;3.23;;;11.90;1.00;;;;;;5070082;28;20301;-60
2022/01/02 03:31:26;;;;;;;6.73;3.33;;;12.00;1.00;;;;;;5045929;28;20229;-61
2022/01/02 03:33:54;;;;;;;6.67;2.90;;;11.90;1.00;;;;;;5070577;28;20802;-60
2022/01/02 03:36:21;;;;;;;5.50;3.00;;;11.90;1.00;;;;;;5062656;28;20194;-60
2022/01/02 03:38:48;;;;;;;5.93;3.10;;;11.90;1.00;;;;;;5066800;28;20217;-60
2022/01/02 03:41:15;;;;;;;6.90;3.20;;;11.90;1.00;;;;;;5086004;28;20190;-60
2022/01/02 03:43:42;;;;;;;7.90;3.30;;;11.90;1.00;;;;;;5068489;28;20541;-60
2022/01/02 03:46:09;;;;;;;5.03;3.07;;;12.00;1.00;;;;;;5084635;28;20205;-61
2022/01/02 03:48:37;;;;;;;4.77;2.80;;;12.00;1.00;;;;;;5085028;28;20234;-60
2022/01/02 03:51:06;;;;;;;5.87;3.20;;;12.00;1.00;;;;;;5048867;28;20194;-60
2022/01/02 03:53:35;;;;;;;5.30;2.90;;;12.00;1.00;;;;;;5067586;28;20202;-60
2022/01/02 03:56:02;;;;;;;8.27;3.00;;;12.00;1.00;;;;;;5062701;28;20202;-60
2022/01/02 03:58:30;;;;;;;4.53;2.97;;;12.00;1.00;;;;;;5061427;28;20216;-60
2022/01/02 04:00:57;;;;;;;8.63;3.00;;;12.00;1.00;;;;;;5064853;28;20833;-60
2022/01/02 04:03:25;;;;;;;5.60;2.90;;;12.10;1.00;;;;;;5063976;28;20226;-60
2022/01/02 04:05:52;;;;;;;8.80;2.93;;;12.10;1.00;;;;;;5083205;28;20217;-60
2022/01/02 04:08:19;;;;;;;9.43;3.20;;;12.00;1.00;;;;;;5085935;28;20238;-60
2022/01/02 04:10:46;;;;;;;4.90;2.97;;;12.00;1.00;;;;;;5053740;28;20198;-60
2022/01/02 04:13:13;;;;;;;7.77;3.10;;;12.00;1.00;;;;;;5069536;28;20210;-60
2022/01/02 04:15:40;;;;;;;8.37;3.00;;;12.00;1.00;;;;;;5067997;28;20577;-60
2022/01/02 04:18:08;;;;;;;8.83;3.00;;;12.00;1.00;;;;;;5054973;28;20284;-60
2022/01/02 04:20:35;;;;;;;7.53;3.50;;;12.10;1.00;;;;;;5066326;28;20349;-60
2022/01/02 04:23:02;;;;;;;3.90;2.90;;;12.00;1.00;;;;;;5070230;28;20210;-60
2022/01/02 04:25:30;;;;;;;7.87;3.10;;;12.00;1.00;;;;;;5069612;28;20217;-60
2022/01/02 04:27:56;;;;;;;11.70;3.47;;;12.00;1.00;;;;;;5081693;28;20203;-60
2022/01/02 04:30:23;;;;;;;8.63;3.30;;;12.00;1.00;;;;;;5064560;28;20669;-60
2022/01/02 04:32:52;;;;;;;7.77;2.93;;;12.00;1.00;;;;;;5088632;28;20307;-60
2022/01/02 04:35:19;;;;;;;7.87;3.00;;;12.00;1.00;;;;;;5069657;28;20212;-60
2022/01/02 04:37:47;;;;;;;7.70;3.63;;;12.10;1.00;;;;;;5063569;28;20198;-60
2022/01/02 04:40:14;;;;;;;7.23;3.13;;;12.10;1.00;;;;;;5068496;28;20267;-60
2022/01/02 04:42:43;;;;;;;8.57;2.67;;;12.10;1.00;;;;;;5070647;28;20218;-60
2022/01/02 04:45:11;;;;;;;9.13;3.20;;;12.10;1.00;;;;;;5082303;28;20569;-59
2022/01/02 04:47:38;;;;;;;5.27;3.33;;;12.10;1.00;;;;;;5054183;28;20309;-60
2022/01/02 04:50:09;;;;;;;8.83;3.23;;;12.10;1.00;;;;;;5050213;28;20198;-60
2022/01/02 04:52:36;;;;;;;7.50;3.33;;;12.10;1.00;;;;;;5078813;28;20235;-60
2022/01/02 04:55:04;;;;;;;7.27;2.83;;;12.10;1.00;;;;;;5069899;28;20201;-60
2022/01/02 04:57:31;;;;;;;6.73;3.40;;;12.00;1.00;;;;;;5087694;28;20194;-60
2022/01/02 04:59:58;;;;;;;6.33;3.00;;;12.00;12.20;;;;;;5065156;28;20220;-60
2022/01/02 05:02:25;;;;;;;8.03;3.60;;;12.00;1.00;;;;;;5065782;28;20270;-59
2022/01/02 05:04:53;;;;;;;9.80;3.13;;;12.00;63.00;;;;;;5068613;28;20194;-59
2022/01/02 05:07:20;;;;;;;6.53;3.97;;;12.00;68.50;;;;;;5068107;28;20280;-59
2022/01/02 05:09:47;;;;;;;9.07;3.40;;;12.10;71.50;;;;;;5064002;28;20240;-60
2022/01/02 05:12:14;;;;;;;9.73;4.03;;;12.20;31.00;;;;;;5069035;28;20198;-60
2022/01/02 05:14:41;;;;;;;7.67;3.33;;;12.20;99.90;;;;;;5064467;28;20243;-60
2022/01/02 05:17:08;;;;;;;8.03;3.07;;;12.20;99.90;;;;;;5067758;28;20241;-60
2022/01/02 05:19:36;;;;;;;12.90;4.30;;;12.20;99.90;;;;;;5070447;28;20204;-59
2022/01/02 05:22:07;;;;;;;7.93;3.43;;;12.20;99.90;;;;;;5068192;28;20218;-60
2022/01/02 05:24:34;;;;;;;7.50;4.50;;;12.10;99.90;;;;;;5062264;28;20229;-59
2022/01/02 05:27:02;;;;;;;8.80;3.67;;;12.10;99.90;;;;;;5063893;28;20198;-60
2022/01/02 05:29:30;;;;;;;9.43;3.67;;;12.10;99.90;;;;;;5087590;28;20218;-60
2022/01/02 05:32:00;;;;;;;12.53;3.33;;;12.10;99.90;;;;;;5067844;28;20234;-60
2022/01/02 05:34:27;;;;;;;8.87;3.27;;;12.20;99.90;;;;;;5084766;28;20241;-60
2022/01/02 05:36:54;;;;;;;11.07;4.63;;;12.20;99.90;;;;;;5067260;28;20198;-60
2022/01/02 05:39:23;;;;;;;13.33;6.67;;;12.20;99.90;;;;;;5087939;28;20315;-61
2022/01/02 05:41:52;;;;;;;10.20;6.03;;;12.20;99.90;;;;;;5069302;28;20190;-61
2022/01/02 05:44:22;;;;;;;14.37;6.67;;;12.20;99.90;;;;;;5079481;28;20752;-61
2022/01/02 05:46:49;;;;;;;9.67;3.80;;;12.20;99.90;;;;;;5055711;28;20285;-61
2022/01/02 05:49:17;;;;;;;12.47;4.43;;;12.20;99.90;;;;;;5071077;28;20224;-60
2022/01/02 05:51:44;;;;;;;10.03;3.67;;;12.20;99.90;;;;;;5052729;28;20194;-60
2022/01/02 05:54:11;;;;;;;7.50;3.13;;;12.20;99.90;;;;;;5070160;28;20206;-60
2022/01/02 05:56:38;;;;;;;9.33;3.97;;;12.30;99.90;;;;;;5087636;28;20191;-60
2022/01/02 05:59:05;;;;;;;9.87;4.70;;;12.30;99.90;;;;;;5066445;28;20248;-60
2022/01/02 06:01:33;;;;;;;7.50;4.17;;;12.20;99.90;;;;;;5062762;28;20668;-60
2022/01/02 06:04:00;;;;;;;13.60;3.60;;;12.20;99.90;;;;;;5085955;28;20746;-60
2022/01/02 06:06:28;;;;;;;7.83;3.00;;;12.30;99.90;;;;;;5053504;28;20297;-60
2022/01/02 06:08:55;;;;;;;9.53;3.57;;;12.30;99.90;;;;;;5067383;28;20568;-60
2022/01/02 06:11:22;;;;;;;8.90;3.53;;;12.30;99.90;;;;;;5066482;28;20688;-60
2022/01/02 06:13:50;;;;;;;9.33;3.60;;;12.40;99.90;;;;;;5087465;28;20194;-60
2022/01/02 06:16:18;;;;;;;7.13;3.37;;;12.40;99.90;;;;;;5054260;28;20258;-61
2022/01/02 06:18:45;;;;;;;11.73;4.67;;;12.40;99.90;;;;;;5079527;28;20209;-59
2022/01/02 06:21:12;;;;;;;10.47;5.27;;;12.40;99.90;;;;;;5070261;28;20242;-61
2022/01/02 06:23:40;;;;;;;11.93;4.23;;;12.40;99.90;;;;;;5068757;28;20297;-60
2022/01/02 06:26:07;;;;;;;13.83;6.37;;;12.40;99.90;;;;;;5063754;28;20575;-60
2022/01/02 06:28:36;;;;;;;14.73;6.80;;;12.40;99.90;;;;;;5059405;28;20217;-61
2022/01/02 06:31:03;;;;;;;9.33;4.13;;;12.30;1.00;;;;;;5066483;28;20198;-60
2022/01/02 06:33:31;;;;;;;9.47;3.27;;;12.30;1.00;;;;;;5072524;28;20334;-61
2022/01/02 06:35:58;;;;;;;9.33;4.07;;;12.30;1.00;;;;;;5091300;28;20963;-61
2022/01/02 06:38:25;;;;;;;8.73;4.13;;;12.30;1.00;;;;;;5055094;28;20210;-60
2022/01/02 06:40:55;;;;;;;13.63;5.27;;;12.20;1.00;;;;;;5070400;28;20202;-60
2022/01/02 06:43:22;;;;;;;9.73;3.47;;;12.10;1.00;;;;;;5071667;28;20213;-62
2022/01/02 06:45:50;;;;;;;12.47;3.90;;;12.10;1.00;;;;;;5070809;28;20235;-62
2022/01/02 06:48:17;;;;;;;9.27;3.37;;;12.10;1.00;;;;;;5070021;28;20317;-60
2022/01/02 06:50:45;;;;;;;8.83;3.57;;;12.00;1.00;;;;;;5087542;28;20186;-62
2022/01/02 06:53:12;;;;;;;11.43;4.90;;;12.10;1.00;;;;;;5082015;28;20213;-61
2022/01/02 06:55:39;;;;;;;12.03;5.83;;;12.10;1.00;;;;;;5070280;28;20213;-61
2022/01/02 06:58:07;;;;;;;11.73;3.03;;;12.10;1.00;;;;;;5068897;28;20252;-61
2022/01/02 07:00:37;;;;;;;9.83;4.07;;;12.10;1.00;;;;;;5070033;28;20205;-61
2022/01/02 07:03:06;;;;;;;7.47;3.70;;;12.10;1.00;;;;;;5070298;28;20205;-61
2022/01/02 07:05:34;;;;;;;12.50;5.47;;;12.00;1.00;;;;;;5071092;28;20198;-61
2022/01/02 07:08:02;;;;;;;10.13;4.07;;;12.10;1.00;;;;;;5068987;28;20573;-61
2022/01/02 07:10:30;;;;;;;10.23;5.13;;;12.00;1.00;;;;;;5068636;28;20701;-60
2022/01/02 07:12:57;;;;;;;13.17;6.80;;;12.10;1.00;;;;;;5088355;28;20596;-60
2022/01/02 07:15:24;;;;;;;13.90;5.50;;;12.10;1.00;;;;;;5088305;28;20194;-60
2022/01/02 07:17:51;;;;;;;14.77;5.70;;;12.00;1.00;;;;;;5088603;28;20225;-60
2022/01/02 07:20:18;;;;;;;9.90;4.00;;;12.00;1.00;;;;;;5088126;28;20271;-60
2022/01/02 07:22:46;;;;;;;9.73;3.70;;;12.00;1.00;;;;;;5081144;28;20725;-60
2022/01/02 07:25:17;;;;;;;9.57;4.10;;;12.00;1.00;;;;;;5063669;28;20186;-60
2022/01/02 07:27:44;;;;;;;12.47;4.20;;;12.00;1.00;;;;;;5089523;28;20229;-60
2022/01/02 07:30:11;;;;;;;11.60;3.70;;;12.00;1.00;;;;;;5081056;28;20260;-60
2022/01/02 07:32:39;;;;;;;10.80;3.53;;;12.00;1.00;;;;;;5066656;28;20222;-60
2022/01/02 07:35:07;;;;;;;8.20;3.40;;;12.00;1.00;;;;;;5088130;28;20280;-60
2022/01/02 07:37:34;;;;;;;8.87;4.07;;;12.00;1.00;;;;;;5086944;28;20868;-60
2022/01/02 07:40:03;;;;;;;10.57;4.07;;;12.00;1.00;;;;;;5085567;28;20202;-60
2022/01/02 07:42:30;;;;;;;14.23;4.10;;;12.00;1.00;;;;;;5088705;28;20567;-60
2022/01/02 07:45:07;;;;;;;11.10;3.93;;;12.00;1.00;;;;;;5067453;28;20248;-60
2022/01/02 07:47:37;;;;;;;8.37;3.90;;;11.90;1.00;;;;;;5089959;28;20268;-60
2022/01/02 07:50:04;;;;;;;10.20;4.07;;;11.90;1.00;;;;;;5068381;28;20215;-60
2022/01/02 07:52:31;;;;;;;13.20;3.90;;;11.90;1.00;;;;;;5084630;28;20251;-60
2022/01/02 07:54:58;;;;;;;8.27;3.47;;;11.90;1.00;;;;;;5065256;28;20213;-60
2022/01/02 07:57:25;;;;;;;8.00;3.70;;;11.90;1.00;;;;;;5088779;28;20844;-61
2022/01/02 07:59:52;;;;;;;16.20;4.73;;;11.90;1.00;;;;;;5085852;28;20201;-61
2022/01/02 08:02:41;;;;;;;9.20;3.50;;;11.90;1.00;;;;;;5073381;28;20191;-61
2022/01/02 08:05:10;;;;;;;10.97;4.10;;;11.90;1.00;;;;;;5049839;28;20211;-60
2022/01/02 08:07:39;;;;;;;11.33;4.17;;;11.90;1.00;;;;;;5086554;28;20210;-61
2022/01/02 08:10:06;;;;;;;14.23;4.47;;;12.00;1.00;;;;;;5080461;28;20255;-60
2022/01/02 08:12:33;;;;;;;11.00;4.43;;;12.00;1.00;;;;;;5088981;28;20194;-60
2022/01/02 08:15:01;;;;;;;10.83;4.23;;;12.00;1.00;;;;;;5065533;28;20284;-60
2022/01/02 08:17:28;;;;;;;16.57;4.63;;;12.10;1.00;;;;;;5082642;28;20199;-60
2022/01/02 08:19:55;;;;;;;10.83;4.00;;;12.30;99.90;;;;;;5083622;28;20203;-60
2022/01/02 08:22:22;;;;;;;9.93;3.37;;;12.30;99.90;;;;;;5082671;28;21004;-59
2022/01/02 08:24:49;;;;;;;8.10;3.97;;;12.40;99.90;;;;;;5080075;28;20203;-59
2022/01/02 08:27:16;;;;;;;10.90;3.83;;;12.50;99.90;;;;;;5078619;28;20200;-60
2022/01/02 08:29:43;;;;;;;12.73;4.00;;;12.40;99.90;;;;;;5071592;28;20885;-60
2022/01/02 08:32:12;;;;;;;8.93;3.70;;;12.40;99.90;;;;;;5082952;28;20230;-60
2022/01/02 08:34:38;;;;;;;10.90;4.50;;;12.40;99.90;;;;;;5085125;28;20235;-61
2022/01/02 08:37:05;;;;;;;9.17;4.70;;;12.40;99.90;;;;;;5068997;28;20217;-60
2022/01/02 08:39:33;;;;;;;10.63;4.33;;;12.30;99.90;;;;;;5084607;28;20567;-60
2022/01/02 08:42:00;;;;;;;9.00;3.77;;;12.20;99.90;;;;;;5066670;28;20232;-61
2022/01/02 08:44:27;;;;;;;8.47;3.70;;;12.20;99.90;;;;;;5083959;28;20822;-60
2022/01/02 08:46:54;;;;;;;15.93;4.10;;;12.20;51.50;;;;;;5062374;28;20206;-59
2022/01/02 08:49:22;;;;;;;7.97;3.40;;;12.20;28.00;;;;;;5085903;28;20241;-59
2022/01/02 08:51:50;;;;;;;11.40;4.00;;;12.30;1.00;;;;;;5085096;28;20186;-59
2022/01/02 08:54:17;;;;;;;7.23;3.30;;;12.30;1.00;;;;;;5085519;28;20274;-60
2022/01/02 08:56:44;;;;;;;6.87;3.27;;;12.40;1.00;;;;;;5086472;28;20206;-60
2022/01/02 08:59:11;;;;;;;9.67;3.70;;;12.40;1.00;;;;;;5085110;28;20194;-59
2022/01/02 09:01:38;;;;;;;11.57;5.40;;;12.40;1.00;;;;;;5068790;28;20569;-60
2022/01/02 09:04:05;;;;;;;11.63;6.50;;;12.40;1.00;;;;;;5069315;28;20243;-60
2022/01/02 09:06:34;;;;;;;18.03;9.30;;;12.40;1.00;;;;;;5084204;28;20285;-59
2022/01/02 09:09:01;;;;;;;9.13;3.97;;;12.50;1.00;;;;;;5079197;28;20749;-59
2022/01/02 09:11:28;;;;;;;10.73;4.10;;;12.60;1.00;;;;;;5080867;28;20704;-60
2022/01/02 09:13:55;;;;;;;14.07;3.90;;;12.60;1.00;;;;;;5082279;28;20597;-59
2022/01/02 09:16:22;;;;;;;10.27;3.60;;;12.60;80.70;;;;;;5083241;28;20198;-60
2022/01/02 09:18:49;;;;;;;8.90;3.67;;;12.60;99.90;;;;;;5087193;28;20208;-60
2022/01/02 09:21:16;;;;;;;9.53;3.03;;;12.50;99.90;;;;;;5060464;28;20595;-60
2022/01/02 09:23:43;;;;;;;9.40;3.70;;;12.50;1.00;;;;;;5086261;28;20204;-60
2022/01/02 09:26:11;;;;;;;9.80;3.33;;;12.60;16.50;;;;;;5066088;28;20218;-60
2022/01/02 09:28:38;;;;;;;9.17;3.57;;;12.60;1.00;;;;;;5087167;28;20238;-60
2022/01/02 09:31:05;;;;;;;7.23;3.60;;;12.60;1.00;;;;;;5057300;28;20208;-60
2022/01/02 09:33:32;;;;;;;6.70;2.97;;;12.70;1.00;;;;;;5080969;28;20244;-59
2022/01/02 09:35:59;;;;;;;8.83;3.60;;;12.70;1.00;;;;;;5085133;28;20297;-59
2022/01/02 09:38:26;;;;;;;11.57;3.53;;;12.70;1.00;;;;;;5085575;28;20194;-59
2022/01/02 09:40:53;;;;;;;9.03;3.40;;;12.70;1.00;;;;;;5081555;28;20243;-60
2022/01/02 09:43:20;;;;;;;8.37;3.33;;;12.70;1.00;;;;;;5083822;28;20210;-60
2022/01/02 09:45:49;;;;;;;5.57;2.90;;;12.70;1.00;;;;;;5078916;28;20289;-60
2022/01/02 09:48:16;;;;;;;8.57;3.30;;;12.60;1.00;;;;;;5084010;28;20276;-60
2022/01/02 09:50:44;;;;;;;15.23;7.53;;;12.50;1.00;;;;;;5084135;28;20217;-59
2022/01/02 09:53:11;;;;;;;6.40;3.07;;;12.40;1.00;;;;;;5067435;28;20226;-60
2022/01/02 09:55:38;;;;;;;7.10;3.57;;;12.40;1.00;;;;;;5083590;28;20734;-60
2022/01/02 09:58:11;;;;;;;6.27;3.40;;;12.50;1.00;;;;;;5083208;28;20210;-60
2022/01/02 10:00:39;;;;;;;6.60;2.87;;;12.70;1.00;;;;;;5079794;28;20214;-59
2022/01/02 10:03:09;;;;;;;6.83;2.50;;;12.80;1.00;;;;;;5082173;28;21364;-60
2022/01/02 10:05:49;;;;;;;10.50;3.47;;;12.90;99.90;;;;;;5066828;28;20194;-60
2022/01/02 10:08:30;;;;;;;6.33;3.00;;;13.10;99.90;;;;;;5088864;28;20281;-60
2022/01/02 10:11:20;;;;;;;7.47;2.83;;;13.20;99.90;;;;;;5084692;28;20209;-60
2022/01/02 10:13:51;;;;;;;5.00;2.77;;;13.40;55.00;;;;;;5070433;28;20286;-59
2022/01/02 10:16:33;;;;;;;7.47;3.00;;;13.40;99.90;;;;;;5090278;28;20198;-60
2022/01/02 10:19:26;;;;;;;4.40;2.20;;;13.40;95.20;;;;;;5087532;28;20653;-60
2022/01/02 10:21:57;;;;;;;3.37;2.57;;;13.50;32.00;;;;;;5090069;28;20222;-59
2022/01/02 10:24:37;;;;;;;3.07;2.10;;;13.50;1.00;;;;;;5088676;28;20202;-60
2022/01/02 10:27:14;;;;;;;5.23;2.17;;;13.60;1.00;;;;;;5087766;28;20186;-60
2022/01/02 10:29:52;;;;;;;3.23;2.30;;;13.60;1.00;;;;;;5090181;28;20217;-59
2022/01/02 10:32:29;;;;;;;4.40;2.40;;;13.50;1.00;;;;;;5086929;28;20218;-59
2022/01/02 10:35:16;;;;;;;3.80;2.10;;;13.50;1.00;;;;;;5084760;28;20194;-59
2022/01/02 10:37:55;;;;;;;5.40;2.10;;;13.40;1.00;;;;;;5089471;28;20571;-59
2022/01/02 10:40:25;;;;;;;3.50;2.43;;;13.60;1.00;;;;;;5069519;28;20226;-59
2022/01/02 10:42:52;;;;;;;2.00;1.70;;;13.70;1.00;;;;;;5091171;28;20187;-59
2022/01/02 10:45:43;;;;;;;4.03;1.92;;;13.80;1.00;;;;;;5066854;28;20226;-59
2022/01/02 10:48:12;;;;;;;3.50;2.10;;;14.00;1.00;;;;;;5092317;28;20190;-59
2022/01/02 10:50:40;;;;;;;4.07;2.17;;;13.90;1.00;;;;;;5071329;28;20749;-59
2022/01/02 10:53:25;;;;;;;3.87;1.77;;;13.80;1.00;;;;;;5069852;28;20661;-59
2022/01/02 10:55:52;;;;;;;5.80;2.20;;;13.70;1.00;;;;;;5088189;28;20214;-60
2022/01/02 10:58:19;;;;;;;5.65;2.17;;;13.70;1.00;;;;;;5088886;28;20202;-60
2022/01/02 11:00:46;;;;;;;2.83;2.30;;;13.90;1.00;;;;;;5085738;28;20233;-61
2022/01/02 11:03:14;;;;;;;6.03;2.70;;;14.10;1.00;;;;;;5081320;28;20205;-60
2022/01/02 11:05:45;;;;;;;4.10;2.37;;;13.90;1.00;;;;;;5068259;28;20206;-60
2022/01/02 11:08:14;;;;;;;3.10;2.33;;;13.70;1.00;;;;;;5091090;28;20664;-60
2022/01/02 11:10:42;;;;;;;3.20;2.57;;;13.50;95.60;;;;;;5085117;28;20210;-60
2022/01/02 11:13:09;;;;;;;4.53;2.70;;;13.20;99.90;;;;;;5061495;28;20251;-60
2022/01/02 11:15:36;;;;;;;5.33;2.87;;;13.10;99.90;;;;;;5078332;28;20225;-60
2022/01/02 11:18:04;;;;;;;3.77;2.43;;;13.10;99.90;;;;;;5085353;28;20285;-59
2022/01/02 11:20:33;;;;;;;11.43;3.17;;;13.40;98.20;;;;;;5088237;28;20324;-60
2022/01/02 11:23:20;;;;;;;4.20;2.73;;;14.00;1.00;;;;;;5071341;28;20198;-60
2022/01/02 11:26:16;;;;;;;4.10;2.80;;;14.40;1.00;;;;;;5080597;28;20210;-61
2022/01/02 11:29:03;;;;;;;4.25;2.45;;;15.20;1.00;;;;;;5088527;28;20190;-61
2022/01/02 11:31:40;;;;;;;6.15;3.00;;;17.20;99.90;;;;;;5087247;28;20218;-61
2022/01/02 11:34:46;;;;;;;6.95;2.60;;;16.80;99.90;;;;;;5087981;28;20196;-61
2022/01/02 11:37:20;;;;;;;4.32;2.80;;;15.10;1.00;;;;;;5031347;28;20194;-60
2022/01/02 11:40:00;;;;;;;4.75;2.42;;;14.60;1.00;;;;;;5088579;28;20202;-60
2022/01/02 11:42:38;;;;;;;6.18;2.50;;;14.60;1.00;;;;;;5089979;28;20205;-61
2022/01/02 11:45:09;;;;;;;4.03;2.60;;;16.20;1.00;;;;;;5070443;28;20194;-60
2022/01/02 11:47:46;;;;;;;5.53;2.75;;;18.00;99.90;;;;;;5087647;28;20225;-60
2022/01/02 11:50:32;;;;;;;4.53;2.50;;;17.70;99.90;;;;;;5084581;28;20670;-60
2022/01/02 11:53:17;;;;;;;3.42;2.53;;;15.80;1.00;;;;;;5089035;28;20191;-61
2022/01/02 11:55:46;;;;;;;4.50;2.85;;;15.30;1.00;;;;;;5086560;28;20186;-61
2022/01/02 11:58:44;;;;;;;4.85;2.95;;;16.50;1.00;;;;;;5087517;28;20669;-60
2022/01/02 12:01:44;;;;;;;7.07;2.72;;;17.60;99.90;;;;;;5067818;28;20277;-61
2022/01/02 12:04:11;;;;;;;7.82;3.30;;;18.10;99.90;;;;;;5086057;28;20259;-61
2022/01/02 12:06:38;;;;;;;4.72;2.70;;;18.70;99.90;;;;;;5085269;28;20190;-61
2022/01/02 12:09:32;;;;;;;5.70;3.08;;;17.70;99.90;;;;;;5087156;28;20233;-61
2022/01/02 12:12:01;;;;;;;6.78;2.95;;;17.50;99.90;;;;;;5062214;28;20270;-61
2022/01/02 12:14:28;;;;;;;7.78;3.20;;;17.50;99.90;;;;;;5069083;28;20187;-60
2022/01/02 12:17:08;;;;;;;5.22;2.92;;;17.30;99.90;;;;;;5084516;28;20197;-60
2022/01/02 12:19:59;;;;;;;7.03;3.08;;;16.70;99.90;;;;;;5087617;28;20209;-60
2022/01/02 12:22:43;;;;;;;8.13;3.00;;;16.90;99.90;;;;;;5063239;28;20210;-61
2022/01/02 12:25:17;;;;;;;5.15;3.40;;;16.50;1.00;;;;;;5098055;28;20251;-61
2022/01/02 12:27:50;;;;;;;9.77;3.40;;;15.70;1.00;;;;;;5087222;28;20197;-61
2022/01/02 12:30:18;;;;;;;7.30;3.45;;;15.30;1.00;;;;;;5089309;28;20214;-61
2022/01/02 12:32:47;;;;;;;6.72;3.60;;;14.90;1.00;;;;;;5081483;28;20245;-60
2022/01/02 12:35:14;;;;;;;7.93;3.95;;;14.60;1.00;;;;;;5078713;28;20203;-60
2022/01/02 12:37:41;;;;;;;6.15;3.45;;;14.30;1.00;;;;;;5066161;28;20321;-60
2022/01/02 12:40:16;;;;;;;5.90;3.33;;;14.20;1.00;;;;;;5066898;28;20562;-60
2022/01/02 12:42:43;;;;;;;7.43;4.10;;;14.10;1.00;;;;;;5084848;28;20251;-60
2022/01/02 12:45:16;;;;;;;6.73;5.13;;;14.00;12.30;;;;;;5086118;28;20206;-60
2022/01/02 12:47:52;;;;;;;6.97;4.30;;;13.90;19.80;;;;;;5086057;28;20194;-60
2022/01/02 12:50:28;;;;;;;7.07;4.63;;;13.80;45.10;;;;;;5069773;28;21263;-60
2022/01/02 12:52:57;;;;;;;9.20;4.03;;;13.80;54.10;;;;;;5085191;28;20197;-60
2022/01/02 12:55:25;;;;;;;8.73;3.37;;;13.70;39.80;;;;;;5069376;28;20290;-59
2022/01/02 12:58:06;;;;;;;5.87;3.20;;;13.70;99.90;;;;;;5086446;28;20194;-59
2022/01/02 13:00:33;;;;;;;7.53;3.13;;;13.70;93.80;;;;;;5060738;28;20202;-59
2022/01/02 13:03:00;;;;;;;7.40;2.90;;;13.60;99.90;;;;;;5087002;28;20193;-60
2022/01/02 13:05:28;;;;;;;6.10;3.10;;;13.60;99.90;;;;;;5082709;28;20296;-60
2022/01/02 13:08:01;;;;;;;6.30;3.10;;;13.60;99.90;;;;;;5086994;28;20250;-59
2022/01/02 13:10:29;;;;;;;6.70;2.80;;;13.60;99.90;;;;;;5087559;28;20242;-59
2022/01/02 13:12:56;;;;;;;4.67;3.07;;;13.50;99.90;;;;;;5085350;28;20191;-59
2022/01/02 13:15:24;;;;;;;7.70;3.30;;;13.50;99.90;;;;;;5087517;28;20284;-59
2022/01/02 13:17:57;;;;;;;7.70;2.80;;;13.50;99.90;;;;;;5070411;28;20673;-59
2022/01/02 13:20:27;;;;;;;7.87;2.90;;;13.50;99.90;;;;;;5085849;28;20273;-60